sensor_id;sensor_type;location;lat;lon;timestamp;P1;durP1;ratioP1;P2;durP2;ratioP2
65706;SDS011;52423;43.512;5.220;2023-12-07T00:02:02;13.93;;;11.70;;
65706;SDS011;52423;43.512;5.220;2023-12-07T00:04:28;13.73;;;12.50;;
65706;SDS011;52423;43.512;5.220;2023-12-07T00:06:53;10.25;;;9.25;;
65706;SDS011;52423;43.512;5.220;2023-12-07T00:09:18;10.35;;;7.57;;
65706;SDS011;52423;43.512;5.220;2023-12-07T00:11:44;6.63;;;6.03;;
65706;SDS011;52423;43.512;5.220;2023-12-07T00:14:09;4.78;;;4.28;;
65706;SDS011;52423;43.512;5.220;2023-12-07T00:16:34;4.30;;;3.90;;
65706;SDS011;52423;43.512;5.220;2023-12-07T00:19:00;5.97;;;5.47;;
65706;SDS011;52423;43.512;5.220;2023-12-07T00:21:25;5.65;;;3.67;;
65706;SDS011;52423;43.512;5.220;2023-12-07T00:23:50;4.75;;;4.25;;
65706;SDS011;52423;43.512;5.220;2023-12-07T00:26:16;4.03;;;3.67;;
65706;SDS011;52423;43.512;5.220;2023-12-07T00:28:41;5.10;;;4.50;;
65706;SDS011;52423;43.512;5.220;2023-12-07T00:31:07;5.93;;;4.65;;
65706;SDS011;52423;43.512;5.220;2023-12-07T00:33:33;5.20;;;4.28;;
65706;SDS011;52423;43.512;5.220;2023-12-07T00:35:58;7.32;;;6.78;;
65706;SDS011;52423;43.512;5.220;2023-12-07T00:38:24;6.28;;;4.68;;
65706;SDS011;52423;43.512;5.220;2023-12-07T00:40:49;6.60;;;5.63;;
65706;SDS011;52423;43.512;5.220;2023-12-07T00:43:14;6.80;;;5.03;;
65706;SDS011;52423;43.512;5.220;2023-12-07T00:45:40;6.60;;;5.55;;
65706;SDS011;52423;43.512;5.220;2023-12-07T00:48:05;4.90;;;3.88;;
65706;SDS011;52423;43.512;5.220;2023-12-07T00:50:31;4.88;;;3.38;;
65706;SDS011;52423;43.512;5.220;2023-12-07T00:52:56;5.28;;;3.88;;
65706;SDS011;52423;43.512;5.220;2023-12-07T00:55:21;5.43;;;5.00;;
65706;SDS011;52423;43.512;5.220;2023-12-07T00:57:47;4.43;;;3.35;;
65706;SDS011;52423;43.512;5.220;2023-12-07T01:00:12;5.22;;;3.65;;
65706;SDS011;52423;43.512;5.220;2023-12-07T01:02:38;4.30;;;3.72;;
65706;SDS011;52423;43.512;5.220;2023-12-07T01:05:04;4.15;;;3.60;;
65706;SDS011;52423;43.512;5.220;2023-12-07T01:07:30;7.13;;;4.22;;
65706;SDS011;52423;43.512;5.220;2023-12-07T01:09:56;4.97;;;4.47;;
65706;SDS011;52423;43.512;5.220;2023-12-07T01:12:21;3.88;;;3.53;;
65706;SDS011;52423;43.512;5.220;2023-12-07T01:14:47;4.90;;;4.28;;
65706;SDS011;52423;43.512;5.220;2023-12-07T01:17:12;4.25;;;3.38;;
65706;SDS011;52423;43.512;5.220;2023-12-07T01:19:37;4.75;;;4.03;;
65706;SDS011;52423;43.512;5.220;2023-12-07T01:22:03;3.53;;;2.78;;
65706;SDS011;52423;43.512;5.220;2023-12-07T01:24:28;5.90;;;3.47;;
65706;SDS011;52423;43.512;5.220;2023-12-07T01:26:54;4.53;;;4.03;;
65706;SDS011;52423;43.512;5.220;2023-12-07T01:29:20;4.75;;;4.35;;
65706;SDS011;52423;43.512;5.220;2023-12-07T01:31:45;6.40;;;5.55;;
65706;SDS011;52423;43.512;5.220;2023-12-07T01:34:10;4.82;;;3.15;;
65706;SDS011;52423;43.512;5.220;2023-12-07T01:36:36;4.80;;;3.70;;
65706;SDS011;52423;43.512;5.220;2023-12-07T01:39:01;5.25;;;3.63;;
65706;SDS011;52423;43.512;5.220;2023-12-07T01:41:27;5.82;;;3.95;;
65706;SDS011;52423;43.512;5.220;2023-12-07T01:43:53;4.47;;;3.35;;
65706;SDS011;52423;43.512;5.220;2023-12-07T01:46:18;6.80;;;3.60;;
65706;SDS011;52423;43.512;5.220;2023-12-07T01:48:43;6.32;;;3.53;;
65706;SDS011;52423;43.512;5.220;2023-12-07T01:51:09;6.20;;;4.50;;
65706;SDS011;52423;43.512;5.220;2023-12-07T01:53:37;3.38;;;2.65;;
65706;SDS011;52423;43.512;5.220;2023-12-07T01:56:04;3.42;;;2.75;;
65706;SDS011;52423;43.512;5.220;2023-12-07T01:58:29;3.30;;;2.47;;
65706;SDS011;52423;43.512;5.220;2023-12-07T02:00:55;2.33;;;2.13;;
65706;SDS011;52423;43.512;5.220;2023-12-07T02:03:21;3.00;;;2.45;;
65706;SDS011;52423;43.512;5.220;2023-12-07T02:05:48;2.45;;;1.95;;
65706;SDS011;52423;43.512;5.220;2023-12-07T02:08:14;2.97;;;2.22;;
65706;SDS011;52423;43.512;5.220;2023-12-07T02:10:39;4.30;;;2.40;;
65706;SDS011;52423;43.512;5.220;2023-12-07T02:13:05;3.60;;;2.72;;
65706;SDS011;52423;43.512;5.220;2023-12-07T02:15:31;3.17;;;2.85;;
65706;SDS011;52423;43.512;5.220;2023-12-07T02:20:46;3.47;;;2.65;;
65706;SDS011;52423;43.512;5.220;2023-12-07T02:23:20;4.13;;;2.60;;
65706;SDS011;52423;43.512;5.220;2023-12-07T02:25:53;4.50;;;2.60;;
65706;SDS011;52423;43.512;5.220;2023-12-07T02:28:19;3.58;;;3.03;;
65706;SDS011;52423;43.512;5.220;2023-12-07T02:30:45;2.95;;;2.58;;
65706;SDS011;52423;43.512;5.220;2023-12-07T02:33:11;4.88;;;2.03;;
65706;SDS011;52423;43.512;5.220;2023-12-07T02:35:37;4.43;;;3.63;;
65706;SDS011;52423;43.512;5.220;2023-12-07T02:38:03;3.95;;;2.65;;
65706;SDS011;52423;43.512;5.220;2023-12-07T02:40:30;6.05;;;3.75;;
65706;SDS011;52423;43.512;5.220;2023-12-07T02:42:56;5.95;;;4.45;;
65706;SDS011;52423;43.512;5.220;2023-12-07T02:45:23;4.35;;;3.47;;
65706;SDS011;52423;43.512;5.220;2023-12-07T02:47:48;16.45;;;8.05;;
65706;SDS011;52423;43.512;5.220;2023-12-07T02:50:14;10.80;;;5.60;;
65706;SDS011;52423;43.512;5.220;2023-12-07T02:52:39;12.75;;;6.00;;
65706;SDS011;52423;43.512;5.220;2023-12-07T02:55:05;11.18;;;6.63;;
65706;SDS011;52423;43.512;5.220;2023-12-07T02:57:31;9.57;;;5.53;;
65706;SDS011;52423;43.512;5.220;2023-12-07T03:00:00;6.07;;;4.45;;
65706;SDS011;52423;43.512;5.220;2023-12-07T03:02:25;12.35;;;7.47;;
65706;SDS011;52423;43.512;5.220;2023-12-07T03:04:51;19.90;;;10.13;;
65706;SDS011;52423;43.512;5.220;2023-12-07T03:07:16;19.42;;;11.18;;
65706;SDS011;52423;43.512;5.220;2023-12-07T03:09:42;18.65;;;11.30;;
65706;SDS011;52423;43.512;5.220;2023-12-07T03:12:07;20.65;;;11.38;;
65706;SDS011;52423;43.512;5.220;2023-12-07T03:14:33;16.90;;;10.88;;
65706;SDS011;52423;43.512;5.220;2023-12-07T03:16:58;13.82;;;8.32;;
65706;SDS011;52423;43.512;5.220;2023-12-07T03:19:24;10.45;;;6.00;;
65706;SDS011;52423;43.512;5.220;2023-12-07T03:21:50;7.28;;;6.47;;
65706;SDS011;52423;43.512;5.220;2023-12-07T03:24:15;8.27;;;5.78;;
65706;SDS011;52423;43.512;5.220;2023-12-07T03:26:41;6.55;;;4.45;;
65706;SDS011;52423;43.512;5.220;2023-12-07T03:29:06;7.25;;;4.95;;
65706;SDS011;52423;43.512;5.220;2023-12-07T03:31:32;5.60;;;4.57;;
65706;SDS011;52423;43.512;5.220;2023-12-07T03:33:58;11.85;;;5.18;;
65706;SDS011;52423;43.512;5.220;2023-12-07T03:36:24;14.40;;;8.45;;
65706;SDS011;52423;43.512;5.220;2023-12-07T03:38:49;18.25;;;9.90;;
65706;SDS011;52423;43.512;5.220;2023-12-07T03:41:15;14.82;;;8.05;;
65706;SDS011;52423;43.512;5.220;2023-12-07T03:43:41;11.85;;;6.47;;
65706;SDS011;52423;43.512;5.220;2023-12-07T03:46:06;12.25;;;6.65;;
65706;SDS011;52423;43.512;5.220;2023-12-07T03:48:32;13.43;;;7.35;;
65706;SDS011;52423;43.512;5.220;2023-12-07T03:50:59;10.02;;;8.45;;
65706;SDS011;52423;43.512;5.220;2023-12-07T03:53:24;11.40;;;7.93;;
65706;SDS011;52423;43.512;5.220;2023-12-07T03:55:50;12.65;;;7.75;;
65706;SDS011;52423;43.512;5.220;2023-12-07T03:58:16;8.63;;;5.90;;
65706;SDS011;52423;43.512;5.220;2023-12-07T04:00:41;6.80;;;5.00;;
65706;SDS011;52423;43.512;5.220;2023-12-07T04:03:06;8.98;;;6.32;;
65706;SDS011;52423;43.512;5.220;2023-12-07T04:05:32;6.80;;;4.72;;
65706;SDS011;52423;43.512;5.220;2023-12-07T04:07:58;7.25;;;5.18;;
65706;SDS011;52423;43.512;5.220;2023-12-07T04:10:23;6.47;;;4.15;;
65706;SDS011;52423;43.512;5.220;2023-12-07T04:12:49;4.38;;;3.80;;
65706;SDS011;52423;43.512;5.220;2023-12-07T04:15:14;5.20;;;4.35;;
65706;SDS011;52423;43.512;5.220;2023-12-07T04:17:40;5.28;;;3.88;;
65706;SDS011;52423;43.512;5.220;2023-12-07T04:20:05;3.83;;;2.95;;
65706;SDS011;52423;43.512;5.220;2023-12-07T04:22:32;2.67;;;2.42;;
65706;SDS011;52423;43.512;5.220;2023-12-07T04:24:57;2.40;;;2.00;;
65706;SDS011;52423;43.512;5.220;2023-12-07T04:27:23;3.22;;;2.35;;
65706;SDS011;52423;43.512;5.220;2023-12-07T04:29:48;2.40;;;2.00;;
65706;SDS011;52423;43.512;5.220;2023-12-07T04:32:14;3.65;;;2.28;;
65706;SDS011;52423;43.512;5.220;2023-12-07T04:34:39;4.57;;;3.35;;
65706;SDS011;52423;43.512;5.220;2023-12-07T04:37:04;3.85;;;1.90;;
65706;SDS011;52423;43.512;5.220;2023-12-07T04:39:30;4.07;;;2.45;;
65706;SDS011;52423;43.512;5.220;2023-12-07T04:41:55;3.50;;;2.75;;
65706;SDS011;52423;43.512;5.220;2023-12-07T04:44:20;3.25;;;2.58;;
65706;SDS011;52423;43.512;5.220;2023-12-07T04:46:46;3.00;;;2.63;;
65706;SDS011;52423;43.512;5.220;2023-12-07T04:49:11;5.97;;;4.32;;
65706;SDS011;52423;43.512;5.220;2023-12-07T04:51:37;3.83;;;3.05;;
65706;SDS011;52423;43.512;5.220;2023-12-07T04:54:02;4.50;;;3.45;;
65706;SDS011;52423;43.512;5.220;2023-12-07T04:56:27;4.05;;;2.63;;
65706;SDS011;52423;43.512;5.220;2023-12-07T04:58:53;7.28;;;3.55;;
65706;SDS011;52423;43.512;5.220;2023-12-07T05:01:18;3.42;;;2.88;;
65706;SDS011;52423;43.512;5.220;2023-12-07T05:03:44;4.35;;;2.72;;
65706;SDS011;52423;43.512;5.220;2023-12-07T05:06:10;4.32;;;3.35;;
65706;SDS011;52423;43.512;5.220;2023-12-07T05:08:35;4.47;;;2.90;;
65706;SDS011;52423;43.512;5.220;2023-12-07T05:11:01;3.15;;;2.40;;
65706;SDS011;52423;43.512;5.220;2023-12-07T05:13:26;4.72;;;2.33;;
65706;SDS011;52423;43.512;5.220;2023-12-07T05:15:52;3.95;;;2.10;;
65706;SDS011;52423;43.512;5.220;2023-12-07T05:18:17;3.75;;;3.20;;
65706;SDS011;52423;43.512;5.220;2023-12-07T05:20:42;3.65;;;3.35;;
65706;SDS011;52423;43.512;5.220;2023-12-07T05:23:08;6.28;;;3.92;;
65706;SDS011;52423;43.512;5.220;2023-12-07T05:25:33;50.13;;;19.80;;
65706;SDS011;52423;43.512;5.220;2023-12-07T05:27:59;76.20;;;25.75;;
65706;SDS011;52423;43.512;5.220;2023-12-07T05:30:24;25.73;;;10.18;;
65706;SDS011;52423;43.512;5.220;2023-12-07T05:32:50;27.40;;;10.15;;
65706;SDS011;52423;43.512;5.220;2023-12-07T05:35:15;8.82;;;7.45;;
65706;SDS011;52423;43.512;5.220;2023-12-07T05:37:41;6.68;;;5.35;;
65706;SDS011;52423;43.512;5.220;2023-12-07T05:40:07;8.40;;;4.68;;
65706;SDS011;52423;43.512;5.220;2023-12-07T05:42:34;8.35;;;5.65;;
65706;SDS011;52423;43.512;5.220;2023-12-07T05:44:59;6.60;;;5.70;;
65706;SDS011;52423;43.512;5.220;2023-12-07T05:47:26;5.15;;;4.10;;
65706;SDS011;52423;43.512;5.220;2023-12-07T05:49:51;4.13;;;3.25;;
65706;SDS011;52423;43.512;5.220;2023-12-07T05:52:17;4.78;;;4.28;;
65706;SDS011;52423;43.512;5.220;2023-12-07T05:54:42;7.43;;;6.22;;
65706;SDS011;52423;43.512;5.220;2023-12-07T05:57:08;8.02;;;5.30;;
65706;SDS011;52423;43.512;5.220;2023-12-07T05:59:36;4.40;;;3.47;;
65706;SDS011;52423;43.512;5.220;2023-12-07T06:02:03;5.53;;;3.08;;
65706;SDS011;52423;43.512;5.220;2023-12-07T06:04:29;6.20;;;3.05;;
65706;SDS011;52423;43.512;5.220;2023-12-07T06:06:55;3.13;;;2.80;;
65706;SDS011;52423;43.512;5.220;2023-12-07T06:09:20;3.25;;;2.95;;
65706;SDS011;52423;43.512;5.220;2023-12-07T06:11:45;3.95;;;2.45;;
65706;SDS011;52423;43.512;5.220;2023-12-07T06:14:11;3.65;;;2.67;;
65706;SDS011;52423;43.512;5.220;2023-12-07T06:16:36;4.68;;;2.75;;
65706;SDS011;52423;43.512;5.220;2023-12-07T06:19:02;2.65;;;2.45;;
65706;SDS011;52423;43.512;5.220;2023-12-07T06:21:28;2.80;;;2.60;;
65706;SDS011;52423;43.512;5.220;2023-12-07T06:23:55;4.22;;;3.63;;
65706;SDS011;52423;43.512;5.220;2023-12-07T06:26:21;2.53;;;2.20;;
65706;SDS011;52423;43.512;5.220;2023-12-07T06:28:47;3.20;;;2.40;;
65706;SDS011;52423;43.512;5.220;2023-12-07T06:31:12;3.10;;;2.80;;
65706;SDS011;52423;43.512;5.220;2023-12-07T06:33:40;4.97;;;4.47;;
65706;SDS011;52423;43.512;5.220;2023-12-07T06:36:06;5.88;;;4.15;;
65706;SDS011;52423;43.512;5.220;2023-12-07T06:38:32;4.50;;;2.97;;
65706;SDS011;52423;43.512;5.220;2023-12-07T06:40:57;5.75;;;3.55;;
65706;SDS011;52423;43.512;5.220;2023-12-07T06:43:23;3.47;;;2.92;;
65706;SDS011;52423;43.512;5.220;2023-12-07T06:45:48;4.38;;;3.05;;
65706;SDS011;52423;43.512;5.220;2023-12-07T06:48:13;5.55;;;4.28;;
65706;SDS011;52423;43.512;5.220;2023-12-07T06:50:40;6.13;;;4.70;;
65706;SDS011;52423;43.512;5.220;2023-12-07T06:53:06;5.15;;;3.30;;
65706;SDS011;52423;43.512;5.220;2023-12-07T06:55:32;6.90;;;6.20;;
65706;SDS011;52423;43.512;5.220;2023-12-07T06:57:57;7.45;;;4.70;;
65706;SDS011;52423;43.512;5.220;2023-12-07T07:00:23;7.28;;;5.45;;
65706;SDS011;52423;43.512;5.220;2023-12-07T07:02:49;4.40;;;3.95;;
65706;SDS011;52423;43.512;5.220;2023-12-07T07:05:15;5.90;;;3.97;;
65706;SDS011;52423;43.512;5.220;2023-12-07T07:07:40;8.20;;;6.13;;
65706;SDS011;52423;43.512;5.220;2023-12-07T07:10:06;9.68;;;6.60;;
65706;SDS011;52423;43.512;5.220;2023-12-07T07:12:34;6.22;;;4.40;;
65706;SDS011;52423;43.512;5.220;2023-12-07T07:15:00;11.65;;;7.10;;
65706;SDS011;52423;43.512;5.220;2023-12-07T07:17:26;22.75;;;10.07;;
65706;SDS011;52423;43.512;5.220;2023-12-07T07:19:51;32.17;;;15.15;;
65706;SDS011;52423;43.512;5.220;2023-12-07T07:22:17;27.65;;;14.88;;
65706;SDS011;52423;43.512;5.220;2023-12-07T07:24:42;6.03;;;4.65;;
65706;SDS011;52423;43.512;5.220;2023-12-07T07:27:07;4.80;;;4.03;;
65706;SDS011;52423;43.512;5.220;2023-12-07T07:29:33;6.85;;;4.43;;
65706;SDS011;52423;43.512;5.220;2023-12-07T07:31:58;7.50;;;4.80;;
65706;SDS011;52423;43.512;5.220;2023-12-07T07:34:24;6.03;;;4.47;;
65706;SDS011;52423;43.512;5.220;2023-12-07T07:36:50;5.10;;;3.95;;
65706;SDS011;52423;43.512;5.220;2023-12-07T07:39:15;5.95;;;4.78;;
65706;SDS011;52423;43.512;5.220;2023-12-07T07:41:40;5.63;;;4.10;;
65706;SDS011;52423;43.512;5.220;2023-12-07T07:44:06;4.03;;;3.03;;
65706;SDS011;52423;43.512;5.220;2023-12-07T07:46:31;4.38;;;3.88;;
65706;SDS011;52423;43.512;5.220;2023-12-07T07:48:57;5.00;;;4.00;;
65706;SDS011;52423;43.512;5.220;2023-12-07T07:51:22;4.70;;;3.33;;
65706;SDS011;52423;43.512;5.220;2023-12-07T07:53:47;4.25;;;3.88;;
65706;SDS011;52423;43.512;5.220;2023-12-07T07:56:13;6.55;;;4.10;;
65706;SDS011;52423;43.512;5.220;2023-12-07T07:58:38;3.83;;;2.92;;
65706;SDS011;52423;43.512;5.220;2023-12-07T08:01:04;4.00;;;2.67;;
65706;SDS011;52423;43.512;5.220;2023-12-07T08:03:29;4.70;;;3.08;;
65706;SDS011;52423;43.512;5.220;2023-12-07T08:05:55;3.58;;;2.80;;
65706;SDS011;52423;43.512;5.220;2023-12-07T08:08:20;2.33;;;1.65;;
65706;SDS011;52423;43.512;5.220;2023-12-07T08:10:46;4.07;;;3.45;;
65706;SDS011;52423;43.512;5.220;2023-12-07T08:13:11;3.28;;;2.97;;
65706;SDS011;52423;43.512;5.220;2023-12-07T08:15:36;3.58;;;2.83;;
65706;SDS011;52423;43.512;5.220;2023-12-07T08:18:02;3.72;;;2.92;;
65706;SDS011;52423;43.512;5.220;2023-12-07T08:20:27;4.82;;;4.25;;
65706;SDS011;52423;43.512;5.220;2023-12-07T08:22:53;4.38;;;3.40;;
65706;SDS011;52423;43.512;5.220;2023-12-07T08:25:18;4.00;;;3.67;;
65706;SDS011;52423;43.512;5.220;2023-12-07T08:27:44;3.80;;;3.10;;
65706;SDS011;52423;43.512;5.220;2023-12-07T08:30:11;4.63;;;3.60;;
65706;SDS011;52423;43.512;5.220;2023-12-07T08:32:37;5.55;;;3.60;;
65706;SDS011;52423;43.512;5.220;2023-12-07T08:35:03;5.82;;;4.05;;
65706;SDS011;52423;43.512;5.220;2023-12-07T08:37:30;4.50;;;3.33;;
65706;SDS011;52423;43.512;5.220;2023-12-07T08:39:59;4.68;;;3.10;;
65706;SDS011;52423;43.512;5.220;2023-12-07T08:42:24;3.83;;;3.42;;
65706;SDS011;52423;43.512;5.220;2023-12-07T08:44:51;3.45;;;3.15;;
65706;SDS011;52423;43.512;5.220;2023-12-07T08:47:17;4.78;;;2.75;;
65706;SDS011;52423;43.512;5.220;2023-12-07T08:49:42;6.07;;;4.97;;
65706;SDS011;52423;43.512;5.220;2023-12-07T08:52:08;4.95;;;3.25;;
65706;SDS011;52423;43.512;5.220;2023-12-07T08:54:33;4.47;;;4.07;;
65706;SDS011;52423;43.512;5.220;2023-12-07T08:56:58;4.30;;;3.53;;
65706;SDS011;52423;43.512;5.220;2023-12-07T08:59:24;4.55;;;4.05;;
65706;SDS011;52423;43.512;5.220;2023-12-07T09:01:49;3.28;;;2.95;;
65706;SDS011;52423;43.512;5.220;2023-12-07T09:04:15;11.82;;;10.15;;
65706;SDS011;52423;43.512;5.220;2023-12-07T09:06:40;15.15;;;12.77;;
65706;SDS011;52423;43.512;5.220;2023-12-07T09:09:05;11.07;;;8.77;;
65706;SDS011;52423;43.512;5.220;2023-12-07T09:11:31;7.55;;;6.30;;
65706;SDS011;52423;43.512;5.220;2023-12-07T09:13:57;6.97;;;6.47;;
65706;SDS011;52423;43.512;5.220;2023-12-07T09:16:22;6.30;;;5.40;;
65706;SDS011;52423;43.512;5.220;2023-12-07T09:18:48;4.68;;;4.22;;
65706;SDS011;52423;43.512;5.220;2023-12-07T09:21:13;7.07;;;4.03;;
65706;SDS011;52423;43.512;5.220;2023-12-07T09:23:38;4.75;;;4.28;;
65706;SDS011;52423;43.512;5.220;2023-12-07T09:26:04;4.70;;;4.10;;
65706;SDS011;52423;43.512;5.220;2023-12-07T09:28:31;4.82;;;4.38;;
65706;SDS011;52423;43.512;5.220;2023-12-07T09:30:56;5.63;;;3.78;;
65706;SDS011;52423;43.512;5.220;2023-12-07T09:33:22;6.38;;;5.72;;
65706;SDS011;52423;43.512;5.220;2023-12-07T09:35:47;5.20;;;4.75;;
65706;SDS011;52423;43.512;5.220;2023-12-07T09:38:14;5.15;;;3.45;;
65706;SDS011;52423;43.512;5.220;2023-12-07T09:40:39;3.60;;;2.80;;
65706;SDS011;52423;43.512;5.220;2023-12-07T09:43:04;3.45;;;1.92;;
65706;SDS011;52423;43.512;5.220;2023-12-07T09:45:30;3.63;;;2.70;;
65706;SDS011;52423;43.512;5.220;2023-12-07T09:47:55;5.00;;;2.63;;
65706;SDS011;52423;43.512;5.220;2023-12-07T09:50:22;3.70;;;3.30;;
65706;SDS011;52423;43.512;5.220;2023-12-07T09:52:49;3.65;;;3.33;;
65706;SDS011;52423;43.512;5.220;2023-12-07T09:55:18;3.50;;;3.20;;
65706;SDS011;52423;43.512;5.220;2023-12-07T09:57:45;5.28;;;4.38;;
65706;SDS011;52423;43.512;5.220;2023-12-07T10:00:12;4.90;;;3.95;;
65706;SDS011;52423;43.512;5.220;2023-12-07T10:02:39;4.80;;;4.30;;
65706;SDS011;52423;43.512;5.220;2023-12-07T10:05:10;6.55;;;3.95;;
65706;SDS011;52423;43.512;5.220;2023-12-07T10:07:39;3.40;;;2.42;;
65706;SDS011;52423;43.512;5.220;2023-12-07T10:10:06;4.30;;;4.00;;
65706;SDS011;52423;43.512;5.220;2023-12-07T10:12:32;4.40;;;3.35;;
65706;SDS011;52423;43.512;5.220;2023-12-07T10:15:02;3.88;;;2.72;;
65706;SDS011;52423;43.512;5.220;2023-12-07T10:20:19;4.95;;;2.65;;
65706;SDS011;52423;43.512;5.220;2023-12-07T10:22:49;5.63;;;5.20;;
65706;SDS011;52423;43.512;5.220;2023-12-07T10:25:26;4.03;;;3.55;;
65706;SDS011;52423;43.512;5.220;2023-12-07T10:27:51;4.50;;;4.03;;
65706;SDS011;52423;43.512;5.220;2023-12-07T10:30:17;4.30;;;2.83;;
65706;SDS011;52423;43.512;5.220;2023-12-07T10:32:46;7.13;;;6.38;;
65706;SDS011;52423;43.512;5.220;2023-12-07T10:35:11;4.20;;;3.65;;
65706;SDS011;52423;43.512;5.220;2023-12-07T10:37:36;5.15;;;4.75;;
65706;SDS011;52423;43.512;5.220;2023-12-07T10:40:02;4.30;;;3.47;;
65706;SDS011;52423;43.512;5.220;2023-12-07T10:42:29;4.50;;;2.65;;
65706;SDS011;52423;43.512;5.220;2023-12-07T10:44:58;4.20;;;3.42;;
65706;SDS011;52423;43.512;5.220;2023-12-07T10:47:29;3.92;;;3.22;;
65706;SDS011;52423;43.512;5.220;2023-12-07T10:49:55;3.70;;;3.40;;
65706;SDS011;52423;43.512;5.220;2023-12-07T10:52:25;2.88;;;2.15;;
65706;SDS011;52423;43.512;5.220;2023-12-07T10:55:05;4.13;;;3.25;;
65706;SDS011;52423;43.512;5.220;2023-12-07T10:57:33;5.75;;;3.05;;
65706;SDS011;52423;43.512;5.220;2023-12-07T11:00:00;6.18;;;5.20;;
65706;SDS011;52423;43.512;5.220;2023-12-07T11:02:26;6.38;;;4.93;;
65706;SDS011;52423;43.512;5.220;2023-12-07T11:04:54;10.43;;;6.20;;
65706;SDS011;52423;43.512;5.220;2023-12-07T11:07:21;6.38;;;5.22;;
65706;SDS011;52423;43.512;5.220;2023-12-07T11:09:53;8.02;;;7.32;;
65706;SDS011;52423;43.512;5.220;2023-12-07T11:12:33;7.05;;;6.07;;
65706;SDS011;52423;43.512;5.220;2023-12-07T11:15:05;9.55;;;6.43;;
65706;SDS011;52423;43.512;5.220;2023-12-07T11:17:47;7.18;;;5.20;;
65706;SDS011;52423;43.512;5.220;2023-12-07T11:20:18;9.55;;;6.00;;
65706;SDS011;52423;43.512;5.220;2023-12-07T11:22:44;7.22;;;6.47;;
65706;SDS011;52423;43.512;5.220;2023-12-07T11:25:10;11.60;;;10.38;;
65706;SDS011;52423;43.512;5.220;2023-12-07T11:27:35;10.98;;;9.00;;
65706;SDS011;52423;43.512;5.220;2023-12-07T11:30:02;9.10;;;7.78;;
65706;SDS011;52423;43.512;5.220;2023-12-07T11:32:28;10.65;;;9.43;;
65706;SDS011;52423;43.512;5.220;2023-12-07T11:34:54;9.85;;;8.88;;
65706;SDS011;52423;43.512;5.220;2023-12-07T11:37:24;11.23;;;8.68;;
65706;SDS011;52423;43.512;5.220;2023-12-07T11:40:26;10.50;;;9.50;;
65706;SDS011;52423;43.512;5.220;2023-12-07T11:42:52;11.90;;;7.22;;
65706;SDS011;52423;43.512;5.220;2023-12-07T11:45:35;8.52;;;7.47;;
65706;SDS011;52423;43.512;5.220;2023-12-07T11:48:10;8.52;;;7.65;;
65706;SDS011;52423;43.512;5.220;2023-12-07T11:50:46;11.65;;;7.60;;
65706;SDS011;52423;43.512;5.220;2023-12-07T11:53:35;12.00;;;8.52;;
65706;SDS011;52423;43.512;5.220;2023-12-07T11:56:03;10.38;;;9.32;;
65706;SDS011;52423;43.512;5.220;2023-12-07T11:58:30;10.25;;;9.13;;
65706;SDS011;52423;43.512;5.220;2023-12-07T12:00:57;9.55;;;7.53;;
65706;SDS011;52423;43.512;5.220;2023-12-07T12:03:23;11.43;;;9.80;;
65706;SDS011;52423;43.512;5.220;2023-12-07T12:05:49;10.45;;;8.98;;
65706;SDS011;52423;43.512;5.220;2023-12-07T12:08:15;12.20;;;10.98;;
65706;SDS011;52423;43.512;5.220;2023-12-07T12:10:42;13.70;;;11.75;;
65706;SDS011;52423;43.512;5.220;2023-12-07T12:13:08;12.25;;;9.93;;
65706;SDS011;52423;43.512;5.220;2023-12-07T12:15:34;13.63;;;12.27;;
65706;SDS011;52423;43.512;5.220;2023-12-07T12:18:00;13.20;;;11.75;;
65706;SDS011;52423;43.512;5.220;2023-12-07T12:20:26;12.60;;;11.30;;
65706;SDS011;52423;43.512;5.220;2023-12-07T12:22:51;12.10;;;10.27;;
65706;SDS011;52423;43.512;5.220;2023-12-07T12:25:20;11.90;;;9.48;;
65706;SDS011;52423;43.512;5.220;2023-12-07T12:27:58;9.85;;;7.88;;
65706;SDS011;52423;43.512;5.220;2023-12-07T12:30:27;10.32;;;9.32;;
65706;SDS011;52423;43.512;5.220;2023-12-07T12:32:53;11.57;;;9.77;;
65706;SDS011;52423;43.512;5.220;2023-12-07T12:35:18;15.07;;;9.57;;
65706;SDS011;52423;43.512;5.220;2023-12-07T12:37:44;13.07;;;9.77;;
65706;SDS011;52423;43.512;5.220;2023-12-07T12:40:11;10.40;;;9.32;;
65706;SDS011;52423;43.512;5.220;2023-12-07T12:42:40;14.45;;;11.15;;
65706;SDS011;52423;43.512;5.220;2023-12-07T12:45:08;12.10;;;10.90;;
65706;SDS011;52423;43.512;5.220;2023-12-07T12:47:35;10.43;;;9.40;;
65706;SDS011;52423;43.512;5.220;2023-12-07T12:50:01;10.68;;;9.57;;
65706;SDS011;52423;43.512;5.220;2023-12-07T12:52:29;10.85;;;9.80;;
65706;SDS011;52423;43.512;5.220;2023-12-07T12:54:55;9.23;;;8.32;;
65706;SDS011;52423;43.512;5.220;2023-12-07T12:57:21;10.93;;;8.85;;
65706;SDS011;52423;43.512;5.220;2023-12-07T12:59:47;10.57;;;9.35;;
65706;SDS011;52423;43.512;5.220;2023-12-07T13:02:13;9.60;;;8.32;;
65706;SDS011;52423;43.512;5.220;2023-12-07T13:04:39;9.38;;;7.97;;
65706;SDS011;52423;43.512;5.220;2023-12-07T13:07:05;11.60;;;8.98;;
65706;SDS011;52423;43.512;5.220;2023-12-07T13:09:31;8.38;;;6.55;;
65706;SDS011;52423;43.512;5.220;2023-12-07T13:11:57;7.50;;;5.47;;
65706;SDS011;52423;43.512;5.220;2023-12-07T13:14:23;8.65;;;7.78;;
65706;SDS011;52423;43.512;5.220;2023-12-07T13:16:49;11.68;;;10.77;;
65706;SDS011;52423;43.512;5.220;2023-12-07T13:19:14;7.20;;;5.85;;
65706;SDS011;52423;43.512;5.220;2023-12-07T13:21:40;7.70;;;6.97;;
65706;SDS011;52423;43.512;5.220;2023-12-07T13:24:05;6.38;;;5.75;;
65706;SDS011;52423;43.512;5.220;2023-12-07T13:26:32;8.18;;;4.05;;
65706;SDS011;52423;43.512;5.220;2023-12-07T13:28:58;7.00;;;5.60;;
65706;SDS011;52423;43.512;5.220;2023-12-07T13:31:24;6.22;;;4.35;;
65706;SDS011;52423;43.512;5.220;2023-12-07T13:33:50;6.00;;;4.60;;
65706;SDS011;52423;43.512;5.220;2023-12-07T13:36:15;5.93;;;4.85;;
65706;SDS011;52423;43.512;5.220;2023-12-07T13:38:43;5.13;;;4.32;;
65706;SDS011;52423;43.512;5.220;2023-12-07T13:41:08;6.93;;;6.18;;
65706;SDS011;52423;43.512;5.220;2023-12-07T13:43:34;5.00;;;4.57;;
65706;SDS011;52423;43.512;5.220;2023-12-07T13:45:59;5.88;;;4.85;;
65706;SDS011;52423;43.512;5.220;2023-12-07T13:48:25;5.13;;;4.18;;
65706;SDS011;52423;43.512;5.220;2023-12-07T13:50:51;5.20;;;4.15;;
65706;SDS011;52423;43.512;5.220;2023-12-07T13:53:17;4.68;;;4.10;;
65706;SDS011;52423;43.512;5.220;2023-12-07T13:55:44;5.00;;;3.60;;
65706;SDS011;52423;43.512;5.220;2023-12-07T13:58:10;5.47;;;2.78;;
65706;SDS011;52423;43.512;5.220;2023-12-07T14:00:36;3.60;;;3.30;;
65706;SDS011;52423;43.512;5.220;2023-12-07T14:03:02;3.92;;;3.30;;
65706;SDS011;52423;43.512;5.220;2023-12-07T14:05:29;5.18;;;3.40;;
65706;SDS011;52423;43.512;5.220;2023-12-07T14:07:55;7.03;;;4.97;;
65706;SDS011;52423;43.512;5.220;2023-12-07T14:10:20;8.10;;;6.28;;
65706;SDS011;52423;43.512;5.220;2023-12-07T14:12:47;13.30;;;8.60;;
65706;SDS011;52423;43.512;5.220;2023-12-07T14:15:12;16.02;;;11.88;;
65706;SDS011;52423;43.512;5.220;2023-12-07T14:17:38;11.95;;;10.73;;
65706;SDS011;52423;43.512;5.220;2023-12-07T14:20:07;9.10;;;8.30;;
65706;SDS011;52423;43.512;5.220;2023-12-07T14:22:33;18.27;;;12.85;;
65706;SDS011;52423;43.512;5.220;2023-12-07T14:25:00;13.45;;;7.70;;
65706;SDS011;52423;43.512;5.220;2023-12-07T14:27:25;11.13;;;10.02;;
65706;SDS011;52423;43.512;5.220;2023-12-07T14:29:51;7.80;;;6.97;;
65706;SDS011;52423;43.512;5.220;2023-12-07T14:32:16;7.82;;;4.75;;
65706;SDS011;52423;43.512;5.220;2023-12-07T14:34:43;5.05;;;2.30;;
65706;SDS011;52423;43.512;5.220;2023-12-07T14:37:09;6.43;;;4.30;;
65706;SDS011;52423;43.512;5.220;2023-12-07T14:39:39;15.02;;;10.38;;
65706;SDS011;52423;43.512;5.220;2023-12-07T14:42:04;13.18;;;8.18;;
65706;SDS011;52423;43.512;5.220;2023-12-07T14:44:30;13.13;;;8.75;;